createdAt,value
2019-02-24T00:00:39.625Z,0.07
2019-02-24T00:03:08.516Z,0.10
2019-02-24T00:05:37.378Z,0.18
2019-02-24T00:08:06.327Z,-0.01
2019-02-24T00:10:35.220Z,-0.10
2019-02-24T00:13:04.115Z,0.11
2019-02-24T00:15:33.006Z,0.11
2019-02-24T00:18:02.445Z,0.15
2019-02-24T00:20:31.353Z,0.28
2019-02-24T00:23:00.226Z,0.30
2019-02-24T00:25:29.137Z,0.16
2019-02-24T00:28:06.773Z,0.36
2019-02-24T00:30:28.615Z,0.47
2019-02-24T00:32:57.505Z,0.47
2019-02-24T00:35:26.413Z,0.34
2019-02-24T00:37:55.266Z,0.44
2019-02-24T00:40:24.120Z,0.51
2019-02-24T00:42:53.007Z,0.62
2019-02-24T00:45:21.878Z,0.62
2019-02-24T00:47:50.757Z,0.76
2019-02-24T00:50:19.634Z,0.62
2019-02-24T00:52:48.487Z,0.75
2019-02-24T00:55:17.368Z,0.62
2019-02-24T00:57:46.253Z,0.60
2019-02-24T01:00:15.189Z,0.58
2019-02-24T01:02:44.086Z,0.58
2019-02-24T01:05:12.943Z,0.75
2019-02-24T01:07:41.825Z,0.44
2019-02-24T01:10:11.087Z,0.31
2019-02-24T01:12:39.904Z,0.19
2019-02-24T01:15:10.442Z,0.03
2019-02-24T01:17:39.311Z,0.08
2019-02-24T01:20:09.509Z,0.07
2019-02-24T01:22:38.377Z,0.01
2019-02-24T01:25:07.666Z,-0.08
2019-02-24T01:27:36.547Z,-0.19
2019-02-24T01:30:07.657Z,0.01
2019-02-24T01:32:36.546Z,-0.16
2019-02-24T01:35:07.060Z,-0.14
2019-02-24T01:37:35.968Z,-0.12
2019-02-24T01:40:06.719Z,-0.35
2019-02-24T01:42:35.759Z,-0.21
2019-02-24T01:45:05.854Z,-0.12
2019-02-24T01:47:34.765Z,-0.23
2019-02-24T01:50:04.114Z,-0.31
2019-02-24T01:52:33.030Z,-0.34
2019-02-24T01:55:01.923Z,-0.33
2019-02-24T01:57:30.796Z,-0.31
2019-02-24T01:59:59.680Z,-0.24
2019-02-24T02:02:28.571Z,-0.18
2019-02-24T02:04:58.561Z,-0.03
2019-02-24T02:07:27.528Z,0.01
2019-02-24T02:09:56.408Z,-0.05
2019-02-24T02:12:25.258Z,-0.01
2019-02-24T02:14:54.162Z,-0.05
2019-02-24T02:17:23.023Z,-0.09
2019-02-24T02:19:51.918Z,-0.05
2019-02-24T02:22:20.796Z,-0.09
2019-02-24T02:24:49.662Z,-0.12
2019-02-24T02:27:18.563Z,-0.23
2019-02-24T02:29:47.428Z,-0.31
2019-02-24T02:32:16.282Z,-0.31
2019-02-24T02:34:45.188Z,-0.13
2019-02-24T02:37:14.049Z,-0.23
2019-02-24T02:39:42.938Z,-0.28
2019-02-24T02:42:11.810Z,-0.26
2019-02-24T02:44:40.700Z,-0.19
2019-02-24T02:47:09.589Z,-0.11
2019-02-24T02:49:38.482Z,-0.09
2019-02-24T02:52:07.350Z,-0.12
2019-02-24T02:54:36.261Z,-0.29
2019-02-24T02:57:05.113Z,-0.29
2019-02-24T02:59:33.982Z,-0.24
2019-02-24T03:02:04.501Z,-0.24
2019-02-24T03:04:33.385Z,-0.20
2019-02-24T03:07:09.570Z,-0.18
2019-02-24T03:09:38.457Z,-0.19
2019-02-24T03:12:07.338Z,-0.14
2019-02-24T03:14:36.200Z,-0.12
2019-02-24T03:17:05.105Z,-0.09
2019-02-24T03:19:33.996Z,-0.13
2019-02-24T03:22:02.853Z,-0.09
2019-02-24T03:24:31.754Z,-0.04
2019-02-24T03:27:00.622Z,-0.37
2019-02-24T03:29:29.507Z,-0.25
2019-02-24T03:31:58.390Z,-0.22
2019-02-24T03:34:27.300Z,-0.15
2019-02-24T03:36:56.186Z,-0.13
2019-02-24T03:39:25.063Z,-0.04
2019-02-24T03:41:53.946Z,0.07
2019-02-24T03:44:22.811Z,-0.15
2019-02-24T03:46:51.734Z,-0.31
2019-02-24T03:49:20.641Z,-0.36
2019-02-24T03:51:49.539Z,-0.34
2019-02-24T03:54:18.430Z,-0.44
2019-02-24T03:56:47.295Z,-0.23
2019-02-24T03:59:16.210Z,-0.29
2019-02-24T04:01:45.075Z,-0.20
2019-02-24T04:04:13.943Z,-0.20
2019-02-24T04:06:44.361Z,-0.24
2019-02-24T04:09:13.237Z,-0.17
2019-02-24T04:11:42.176Z,-0.14
2019-02-24T04:14:11.051Z,-0.08
2019-02-24T04:16:39.931Z,-0.04
2019-02-24T04:19:08.813Z,-0.05
2019-02-24T04:21:37.706Z,0.05
2019-02-24T04:24:06.570Z,0.03
2019-02-24T04:26:35.450Z,0.01
2019-02-24T04:29:04.429Z,0.03
2019-02-24T04:31:33.331Z,0.02
2019-02-24T04:34:02.258Z,0.19
2019-02-24T04:36:31.182Z,0.02
2019-02-24T04:39:00.082Z,-0.05
2019-02-24T04:41:28.949Z,-0.07
2019-02-24T04:43:57.824Z,0.03
2019-02-24T04:46:26.720Z,0.23
2019-02-24T04:48:55.590Z,0.11
2019-02-24T04:51:24.474Z,0.20
2019-02-24T04:53:53.369Z,0.12
2019-02-24T04:56:22.266Z,0.18
2019-02-24T04:58:51.131Z,0.06
2019-02-24T05:01:20.027Z,0.13
2019-02-24T05:03:48.893Z,0.16
2019-02-24T05:06:17.800Z,0.27
2019-02-24T05:08:46.694Z,0.13
2019-02-24T05:11:15.539Z,-0.06
2019-02-24T05:13:44.426Z,0.12
2019-02-24T05:16:13.326Z,-0.02
2019-02-24T05:18:42.205Z,-0.06
2019-02-24T05:21:11.058Z,-0.07
2019-02-24T05:23:39.941Z,-0.18
2019-02-24T05:26:10.417Z,-0.08
2019-02-24T05:28:39.277Z,-0.14
2019-02-24T05:31:08.159Z,-0.37
2019-02-24T05:33:37.050Z,-0.33
2019-02-24T05:36:05.935Z,-0.48
2019-02-24T05:38:34.809Z,-0.54
2019-02-24T05:41:03.699Z,-0.32
2019-02-24T05:43:32.624Z,-0.38
2019-02-24T05:46:01.532Z,-0.33
2019-02-24T05:48:30.397Z,-0.33
2019-02-24T05:50:59.296Z,-0.42
2019-02-24T05:53:28.217Z,-0.31
2019-02-24T05:55:57.089Z,-0.05
2019-02-24T05:58:25.962Z,-0.20
2019-02-24T06:00:54.922Z,-0.17
2019-02-24T06:03:23.759Z,0.02
2019-02-24T06:05:52.639Z,0.00
2019-02-24T06:08:21.537Z,-0.22
2019-02-24T06:10:50.443Z,-0.02
2019-02-24T06:13:19.316Z,0.04
2019-02-24T06:15:48.215Z,0.02
2019-02-24T06:18:17.105Z,0.04
2019-02-24T06:20:45.978Z,0.17
2019-02-24T06:23:14.854Z,0.07
2019-02-24T06:25:43.778Z,0.20
2019-02-24T06:28:12.657Z,0.19
2019-02-24T06:30:41.513Z,0.27
2019-02-24T06:33:10.387Z,0.31
2019-02-24T06:35:39.296Z,0.24
2019-02-24T06:38:08.186Z,0.28
2019-02-24T06:40:37.049Z,0.24
2019-02-24T06:43:05.957Z,0.21
2019-02-24T06:45:34.845Z,0.27
2019-02-24T06:48:03.715Z,0.33
2019-02-24T06:50:35.562Z,0.49
2019-02-24T06:53:04.703Z,0.54
2019-02-24T06:55:33.591Z,0.66
2019-02-24T06:58:02.467Z,0.78
2019-02-24T07:00:31.363Z,0.74
2019-02-24T07:03:00.248Z,0.69
2019-02-24T07:05:29.123Z,0.79
2019-02-24T07:07:58.000Z,0.86
2019-02-24T07:10:26.864Z,0.92
2019-02-24T07:12:55.753Z,0.94
2019-02-24T07:15:24.645Z,0.98
2019-02-24T07:17:53.532Z,0.79
2019-02-24T07:20:22.388Z,0.90
2019-02-24T07:22:51.294Z,1.01
2019-02-24T07:25:20.191Z,1.19
2019-02-24T07:27:49.061Z,1.13
2019-02-24T07:30:23.603Z,1.15
2019-02-24T07:32:48.532Z,1.03
2019-02-24T07:35:17.394Z,1.14
2019-02-24T07:37:46.277Z,1.29
2019-02-24T07:40:15.141Z,1.39
2019-02-24T07:42:44.061Z,1.45
2019-02-24T07:45:12.949Z,1.66
2019-02-24T07:47:41.811Z,1.70
2019-02-24T07:50:10.736Z,1.72
2019-02-24T07:52:39.625Z,1.79
2019-02-24T07:55:08.483Z,1.67
2019-02-24T07:57:37.364Z,1.79
2019-02-24T08:00:09.245Z,1.74
2019-02-24T08:02:38.109Z,1.68
2019-02-24T08:05:08.035Z,1.80
2019-02-24T08:07:36.905Z,1.92
2019-02-24T08:10:07.823Z,1.80
2019-02-24T08:12:36.711Z,1.81
2019-02-24T08:15:07.837Z,1.90
2019-02-24T08:17:36.699Z,2.05
2019-02-24T08:20:08.374Z,2.09
2019-02-24T08:22:37.252Z,2.10
2019-02-24T08:25:07.600Z,2.03
2019-02-24T08:27:36.470Z,2.12
2019-02-24T08:30:08.407Z,2.26
2019-02-24T08:32:37.297Z,2.24
2019-02-24T08:35:07.531Z,2.16
2019-02-24T08:37:36.404Z,2.17
2019-02-24T08:40:07.317Z,2.14
2019-02-24T08:42:36.183Z,2.25
2019-02-24T08:45:08.226Z,2.17
2019-02-24T08:47:37.081Z,2.36
2019-02-24T08:50:08.900Z,2.41
2019-02-24T08:52:37.791Z,2.40
2019-02-24T08:55:07.997Z,2.37
2019-02-24T08:57:36.888Z,2.31
2019-02-24T09:00:15.957Z,2.40
2019-02-24T09:02:44.861Z,2.33
2019-02-24T09:05:13.759Z,2.38
2019-02-24T09:07:42.726Z,2.50
2019-02-24T09:10:11.599Z,2.46
2019-02-24T09:12:40.500Z,2.77
2019-02-24T09:15:15.808Z,2.84
2019-02-24T09:17:44.266Z,2.89
2019-02-24T09:20:14.064Z,2.87
2019-02-24T09:22:43.013Z,2.80
2019-02-24T09:25:11.897Z,2.92
2019-02-24T09:27:40.774Z,3.05
2019-02-24T09:30:12.062Z,3.12
2019-02-24T09:32:40.988Z,3.17
2019-02-24T09:35:10.359Z,3.25
2019-02-24T09:37:39.235Z,3.37
2019-02-24T09:40:10.885Z,3.46
2019-02-24T09:42:39.755Z,3.62
2019-02-24T09:45:10.679Z,3.69
2019-02-24T09:47:46.445Z,3.87
2019-02-24T09:50:10.813Z,3.87
2019-02-24T09:52:39.692Z,3.93
2019-02-24T09:55:09.709Z,4.07
2019-02-24T09:57:38.569Z,4.06
2019-02-24T10:00:12.825Z,4.12
2019-02-24T10:02:41.758Z,4.08
2019-02-24T10:05:10.638Z,4.20
2019-02-24T10:07:39.507Z,4.52
2019-02-24T10:10:10.931Z,4.62
2019-02-24T10:12:39.788Z,4.70
2019-02-24T10:15:14.042Z,4.84
2019-02-24T10:17:42.922Z,4.91
2019-02-24T10:20:12.917Z,4.93
2019-02-24T10:22:41.772Z,5.01
2019-02-24T10:25:10.835Z,5.09
2019-02-24T10:27:39.712Z,5.18
2019-02-24T10:30:11.614Z,5.33
2019-02-24T10:32:40.493Z,5.37
2019-02-24T10:35:09.445Z,5.46
2019-02-24T10:37:38.317Z,5.53
2019-02-24T10:40:14.665Z,5.61
2019-02-24T10:42:43.549Z,5.71
2019-02-24T10:45:14.953Z,5.75
2019-02-24T10:47:43.851Z,5.79
2019-02-24T10:50:14.330Z,5.86
2019-02-24T10:52:43.257Z,5.98
2019-02-24T10:55:12.386Z,6.07
2019-02-24T10:57:41.271Z,6.13
2019-02-24T11:00:15.303Z,6.24
2019-02-24T11:02:44.138Z,6.38
2019-02-24T11:05:13.796Z,6.45
2019-02-24T11:07:42.660Z,6.54
2019-02-24T11:10:11.703Z,6.57
2019-02-24T11:12:40.583Z,6.72
2019-02-24T11:15:13.423Z,6.79
2019-02-24T11:17:42.290Z,6.88
2019-02-24T11:20:18.349Z,7.11
2019-02-24T11:22:47.324Z,7.25
2019-02-24T11:25:15.944Z,7.25
2019-02-24T11:27:44.804Z,7.38
2019-02-24T11:30:16.108Z,7.38
2019-02-24T11:32:44.671Z,7.56
2019-02-24T11:35:13.827Z,7.70
2019-02-24T11:37:42.420Z,7.73
2019-02-24T11:40:13.028Z,7.83
2019-02-24T11:42:41.620Z,7.91
2019-02-24T11:45:10.463Z,8.00
2019-02-24T11:47:39.047Z,8.07
2019-02-24T11:50:09.667Z,8.17
2019-02-24T11:52:38.301Z,8.30
2019-02-24T11:55:08.771Z,8.33
2019-02-24T11:57:37.337Z,8.27
2019-02-24T12:00:09.177Z,8.42
2019-02-24T12:02:37.823Z,8.49
2019-02-24T12:05:07.951Z,8.49
2019-02-24T12:07:36.554Z,8.58
2019-02-24T12:10:08.279Z,8.66
2019-02-24T12:12:36.866Z,8.70
2019-02-24T12:15:10.908Z,8.87
2019-02-24T12:17:39.475Z,8.86
2019-02-24T12:20:10.559Z,8.77
2019-02-24T12:22:39.145Z,8.81
2019-02-24T12:25:09.646Z,8.91
2019-02-24T12:27:38.409Z,8.96
2019-02-24T12:30:14.506Z,9.17
2019-02-24T12:32:43.068Z,9.23
2019-02-24T12:35:11.759Z,9.20
2019-02-24T12:37:40.344Z,9.19
2019-02-24T12:40:10.639Z,9.23
2019-02-24T12:42:39.215Z,9.32
2019-02-24T12:45:11.691Z,9.54
2019-02-24T12:47:40.256Z,9.65
2019-02-24T12:50:10.881Z,9.82
2019-02-24T12:52:39.452Z,9.98
2019-02-24T12:55:09.157Z,9.97
2019-02-24T12:57:37.806Z,9.95
2019-02-24T13:00:18.305Z,9.96
2019-02-24T13:02:46.877Z,10.00
2019-02-24T13:05:15.516Z,9.94
2019-02-24T13:07:44.118Z,9.84
2019-02-24T13:10:15.330Z,9.84
2019-02-24T13:12:43.891Z,9.97
2019-02-24T13:15:12.527Z,9.89
2019-02-24T13:17:41.105Z,9.89
2019-02-24T13:20:11.214Z,9.86
2019-02-24T13:22:40.142Z,9.89
2019-02-24T13:25:13.171Z,9.89
2019-02-24T13:27:41.725Z,9.86
2019-02-24T13:30:12.814Z,9.86
2019-02-24T13:32:43.329Z,9.89
2019-02-24T13:35:11.907Z,9.83
2019-02-24T13:37:40.485Z,9.80
2019-02-24T13:40:11.025Z,9.84
2019-02-24T13:42:39.593Z,10.10
2019-02-24T13:45:11.554Z,10.10
2019-02-24T13:47:40.133Z,10.01
2019-02-24T13:50:08.934Z,10.32
2019-02-24T13:52:37.546Z,10.53
2019-02-24T13:55:09.047Z,10.55
2019-02-24T13:57:37.614Z,10.61
2019-02-24T14:00:09.242Z,10.61
2019-02-24T14:02:37.842Z,10.42
2019-02-24T14:05:06.606Z,10.45
2019-02-24T14:07:35.163Z,10.45
2019-02-24T14:10:04.499Z,10.46
2019-02-24T14:12:33.083Z,10.52
2019-02-24T14:15:01.654Z,10.52
2019-02-24T14:17:30.210Z,10.64
2019-02-24T14:19:59.937Z,10.72
2019-02-24T14:22:28.645Z,10.72
2019-02-24T14:24:57.255Z,10.85
2019-02-24T14:27:25.859Z,11.04
2019-02-24T14:29:54.427Z,11.04
2019-02-24T14:32:23.041Z,11.04
2019-02-24T14:34:51.594Z,11.04
2019-02-24T14:37:20.159Z,11.04
2019-02-24T14:39:48.774Z,10.88
2019-02-24T14:42:17.383Z,10.95
2019-02-24T14:44:45.943Z,10.87
2019-02-24T14:47:14.517Z,10.93
2019-02-24T14:49:43.107Z,11.06
2019-02-24T14:52:11.669Z,11.07
2019-02-24T14:54:40.337Z,11.08
2019-02-24T14:57:08.923Z,11.14
2019-02-24T14:59:37.502Z,11.04
2019-02-24T15:02:15.416Z,11.02
2019-02-24T15:04:43.963Z,11.07
2019-02-24T15:07:12.564Z,10.97
2019-02-24T15:09:41.121Z,10.76
2019-02-24T15:12:09.716Z,10.61
2019-02-24T15:14:38.328Z,10.61
2019-02-24T15:17:06.905Z,10.65
2019-02-24T15:19:35.491Z,10.36
2019-02-24T15:22:04.055Z,10.37
2019-02-24T15:24:32.652Z,10.37
2019-02-24T15:27:01.229Z,10.35
2019-02-24T15:29:29.816Z,10.23
2019-02-24T15:31:58.384Z,10.26
2019-02-24T15:34:26.938Z,10.26
2019-02-24T15:36:55.543Z,10.24
2019-02-24T15:39:24.134Z,10.06
2019-02-24T15:41:52.718Z,10.08
2019-02-24T15:44:21.322Z,10.08
2019-02-24T15:46:50.029Z,10.11
2019-02-24T15:49:18.590Z,10.00
2019-02-24T15:51:47.185Z,10.08
2019-02-24T15:54:15.747Z,10.10
2019-02-24T15:56:44.331Z,10.03
2019-02-24T15:59:13.688Z,9.98
2019-02-24T16:01:42.276Z,9.79
2019-02-24T16:04:10.826Z,9.98
2019-02-24T16:06:39.438Z,9.98
2019-02-24T16:09:08.739Z,9.86
2019-02-24T16:11:37.292Z,9.86
2019-02-24T16:14:05.868Z,9.72
2019-02-24T16:16:34.431Z,9.70
2019-02-24T16:19:02.985Z,9.70
2019-02-24T16:21:31.569Z,9.67
2019-02-24T16:24:00.125Z,9.58
2019-02-24T16:26:28.674Z,9.58
2019-02-24T16:28:57.275Z,9.50
2019-02-24T16:31:25.823Z,9.66
2019-02-24T16:33:54.386Z,9.74
2019-02-24T16:36:22.970Z,9.70
2019-02-24T16:38:51.555Z,9.71
2019-02-24T16:41:20.142Z,9.56
2019-02-24T16:43:48.714Z,9.50
2019-02-24T16:46:17.314Z,9.34
2019-02-24T16:48:45.870Z,9.31
2019-02-24T16:51:14.461Z,9.41
2019-02-24T16:53:43.034Z,9.25
2019-02-24T16:56:11.638Z,9.21
2019-02-24T16:58:40.227Z,9.11
2019-02-24T17:01:08.803Z,9.10
2019-02-24T17:03:37.383Z,8.91
2019-02-24T17:06:05.941Z,8.90
2019-02-24T17:08:34.503Z,8.76
2019-02-24T17:11:07.475Z,8.59
2019-02-24T17:13:33.432Z,8.49
2019-02-24T17:16:02.001Z,8.38
2019-02-24T17:18:30.606Z,8.38
2019-02-24T17:20:59.162Z,8.46
2019-02-24T17:23:27.750Z,8.65
2019-02-24T17:25:56.343Z,8.66
2019-02-24T17:28:26.530Z,8.49
2019-02-24T17:30:56.263Z,8.29
2019-02-24T17:33:30.073Z,8.34
2019-02-24T17:35:55.138Z,8.22
2019-02-24T17:38:23.814Z,8.20
2019-02-24T17:40:52.415Z,8.05
2019-02-24T17:43:21.011Z,7.85
2019-02-24T17:45:49.678Z,7.79
2019-02-24T17:48:19.765Z,7.78
2019-02-24T17:50:48.483Z,8.30
2019-02-24T17:53:17.095Z,8.29
2019-02-24T17:55:45.682Z,8.37
2019-02-24T17:58:14.256Z,8.37
2019-02-24T18:00:44.482Z,8.23
2019-02-24T18:03:13.102Z,8.18
2019-02-24T18:05:41.736Z,8.12
2019-02-24T18:08:11.944Z,8.01
2019-02-24T18:10:40.526Z,7.95
2019-02-24T18:13:09.104Z,8.00
2019-02-24T18:15:37.750Z,7.83
2019-02-24T18:18:06.327Z,7.57
2019-02-24T18:20:34.907Z,7.75
2019-02-24T18:23:03.533Z,7.62
2019-02-24T18:25:32.128Z,7.79
2019-02-24T18:28:00.728Z,7.86
2019-02-24T18:30:30.303Z,7.75
2019-02-24T18:32:59.989Z,7.45
2019-02-24T18:35:28.553Z,7.69
2019-02-24T18:37:57.169Z,7.59
2019-02-24T18:40:25.709Z,7.56
2019-02-24T18:43:00.328Z,7.47
2019-02-24T18:45:24.990Z,7.48
2019-02-24T18:47:53.573Z,7.30
2019-02-24T18:50:22.185Z,7.48
2019-02-24T18:52:50.768Z,7.16
2019-02-24T18:55:19.396Z,7.42
2019-02-24T18:57:47.996Z,7.43
2019-02-24T19:00:23.643Z,7.46
2019-02-24T19:02:52.224Z,7.33
2019-02-24T19:05:20.833Z,7.38
2019-02-24T19:07:49.387Z,7.48
2019-02-24T19:10:22.468Z,7.44
2019-02-24T19:12:51.062Z,7.41
2019-02-24T19:15:22.726Z,7.32
2019-02-24T19:17:51.307Z,7.05
2019-02-24T19:20:23.561Z,6.95
2019-02-24T19:22:52.148Z,7.03
2019-02-24T19:25:20.745Z,7.05
2019-02-24T19:27:49.350Z,7.06
2019-02-24T19:30:19.886Z,6.87
2019-02-24T19:32:48.489Z,6.97
2019-02-24T19:35:18.221Z,6.98
2019-02-24T19:37:46.990Z,6.88
2019-02-24T19:40:22.345Z,6.64
2019-02-24T19:42:51.237Z,6.45
2019-02-24T19:45:24.599Z,6.33
2019-02-24T19:47:53.223Z,6.28
2019-02-24T19:50:21.809Z,6.24
2019-02-24T19:52:50.408Z,6.23
2019-02-24T19:55:19.350Z,6.46
2019-02-24T19:57:48.439Z,6.47
2019-02-24T20:00:22.417Z,6.27
2019-02-24T20:02:51.386Z,6.26
2019-02-24T20:05:20.742Z,6.26
2019-02-24T20:07:49.597Z,6.26
2019-02-24T20:10:25.977Z,6.40
2019-02-24T20:12:54.596Z,6.43
2019-02-24T20:15:23.494Z,6.38
2019-02-24T20:17:52.175Z,6.38
2019-02-24T20:20:21.803Z,6.32
2019-02-24T20:22:50.692Z,6.45
2019-02-24T20:25:21.899Z,6.21
2019-02-24T20:27:50.809Z,6.14
2019-02-24T20:30:25.007Z,6.13
2019-02-24T20:32:53.884Z,6.15
2019-02-24T20:35:24.266Z,6.42
2019-02-24T20:37:53.308Z,6.19
2019-02-24T20:40:22.239Z,6.19
2019-02-24T20:42:51.146Z,6.00
2019-02-24T20:45:21.191Z,5.90
2019-02-24T20:47:50.258Z,5.88
2019-02-24T20:50:21.608Z,5.78
2019-02-24T20:52:50.519Z,6.06
2019-02-24T20:55:19.438Z,6.04
2019-02-24T20:57:48.386Z,6.01
2019-02-24T21:00:20.569Z,6.11
2019-02-24T21:02:49.453Z,6.04
2019-02-24T21:05:18.338Z,5.93
2019-02-24T21:07:48.493Z,5.87
2019-02-24T21:10:17.363Z,5.98
2019-02-24T21:12:47.948Z,6.18
2019-02-24T21:15:18.000Z,6.27
2019-02-24T21:17:46.915Z,6.14
2019-02-24T21:20:24.444Z,6.21
2019-02-24T21:22:53.367Z,6.11
2019-02-24T21:25:22.259Z,6.06
2019-02-24T21:27:51.013Z,5.94
2019-02-24T21:30:20.533Z,5.94
2019-02-24T21:32:49.474Z,5.86
2019-02-24T21:35:18.383Z,5.91
2019-02-24T21:37:47.297Z,5.91
2019-02-24T21:40:20.040Z,5.73
2019-02-24T21:42:48.894Z,5.75
2019-02-24T21:45:20.531Z,5.53
2019-02-24T21:47:49.421Z,5.51
2019-02-24T21:50:18.333Z,5.62
2019-02-24T21:52:47.195Z,5.67
2019-02-24T21:55:16.096Z,5.53
2019-02-24T21:57:44.986Z,5.52
2019-02-24T22:00:19.456Z,5.36
2019-02-24T22:02:48.379Z,5.65
2019-02-24T22:05:17.256Z,5.46
2019-02-24T22:07:46.145Z,5.64
2019-02-24T22:10:16.465Z,5.38
2019-02-24T22:12:45.394Z,5.39
2019-02-24T22:15:25.447Z,5.22
2019-02-24T22:17:54.511Z,5.28
2019-02-24T22:20:23.409Z,5.33
2019-02-24T22:22:52.290Z,5.41
2019-02-24T22:25:21.372Z,5.41
2019-02-24T22:27:50.247Z,5.19
2019-02-24T22:30:23.229Z,5.16
2019-02-24T22:32:52.126Z,5.13
2019-02-24T22:35:21.026Z,5.28
2019-02-24T22:37:49.886Z,5.34
2019-02-24T22:40:18.949Z,5.29
2019-02-24T22:42:47.818Z,5.37
2019-02-24T22:45:18.009Z,5.31
2019-02-24T22:47:47.240Z,5.23
2019-02-24T22:50:16.741Z,5.31
2019-02-24T22:52:46.776Z,5.14
2019-02-24T22:55:18.727Z,5.05
2019-02-24T22:57:47.790Z,5.28
2019-02-24T23:00:26.878Z,5.00
2019-02-24T23:02:55.911Z,4.99
2019-02-24T23:05:24.760Z,5.16
2019-02-24T23:07:53.649Z,4.93
2019-02-24T23:10:22.500Z,4.83
2019-02-24T23:12:51.400Z,4.79
2019-02-24T23:15:20.284Z,4.87
2019-02-24T23:17:49.228Z,4.66
2019-02-24T23:20:18.108Z,4.62
2019-02-24T23:22:46.968Z,4.62
2019-02-24T23:25:15.848Z,4.84
2019-02-24T23:27:44.747Z,5.12
2019-02-24T23:30:13.618Z,4.97
2019-02-24T23:32:42.490Z,4.81
2019-02-24T23:35:11.373Z,4.70
2019-02-24T23:37:40.227Z,4.59
2019-02-24T23:40:09.678Z,4.48
2019-02-24T23:42:38.553Z,4.41
2019-02-24T23:45:10.858Z,4.47
2019-02-24T23:47:40.005Z,4.39
2019-02-24T23:50:11.099Z,4.37
2019-02-24T23:52:40.030Z,4.44
2019-02-24T23:55:10.355Z,4.34
2019-02-24T23:57:39.239Z,4.37
